createdAt,value
2018-12-27T00:02:25.319Z,102891.69
2018-12-27T00:04:54.669Z,102885.95
2018-12-27T00:07:24.042Z,102876.22
2018-12-27T00:09:53.530Z,102874.52
2018-12-27T00:12:22.963Z,102872.38
2018-12-27T00:14:52.230Z,102868.40
2018-12-27T00:17:21.488Z,102863.98
2018-12-27T00:19:50.863Z,102869.75
2018-12-27T00:22:20.256Z,102868.55
2018-12-27T00:24:49.536Z,102868.89
2018-12-27T00:27:18.899Z,102870.25
2018-12-27T00:29:48.165Z,102871.61
2018-12-27T00:32:17.481Z,102874.37
2018-12-27T00:34:46.849Z,102876.08
2018-12-27T00:37:16.153Z,102873.89
2018-12-27T00:39:45.471Z,102868.20
2018-12-27T00:42:14.859Z,102865.96
2018-12-27T00:44:44.275Z,102867.72
2018-12-27T00:47:13.768Z,102865.00
2018-12-27T00:49:43.082Z,102857.02
2018-12-27T00:52:12.403Z,102851.23
2018-12-27T00:54:41.799Z,102849.42
2018-12-27T00:57:11.074Z,102844.13
2018-12-27T00:59:40.363Z,102840.93
2018-12-27T01:02:09.702Z,102841.74
2018-12-27T01:04:39.201Z,102832.08
2018-12-27T01:07:08.491Z,102832.45
2018-12-27T01:09:37.776Z,102838.53
2018-12-27T01:12:07.111Z,102830.80
2018-12-27T01:14:36.393Z,102841.42
2018-12-27T01:17:05.670Z,102841.85
2018-12-27T01:19:34.987Z,102834.41
2018-12-27T01:22:04.330Z,102832.95
2018-12-27T01:24:33.685Z,102834.20
2018-12-27T01:27:03.112Z,102837.06
2018-12-27T01:29:32.395Z,102844.98
2018-12-27T01:32:01.657Z,102843.61
2018-12-27T01:34:30.981Z,102832.68
2018-12-27T01:37:00.310Z,102834.77
2018-12-27T01:39:29.618Z,102832.63
2018-12-27T01:41:58.928Z,102825.14
2018-12-27T01:44:28.217Z,102828.22
2018-12-27T01:46:57.485Z,102821.55
2018-12-27T01:49:26.822Z,102814.55
2018-12-27T01:51:56.104Z,102823.19
2018-12-27T01:54:25.409Z,102814.94
2018-12-27T01:56:54.688Z,102814.11
2018-12-27T01:59:24.005Z,102807.95
2018-12-27T02:01:56.271Z,102813.30
2018-12-27T02:04:25.496Z,102808.87
2018-12-27T02:06:54.768Z,102802.32
2018-12-27T02:09:24.068Z,102799.16
2018-12-27T02:11:55.745Z,102801.66
2018-12-27T02:14:24.999Z,102802.09
2018-12-27T02:16:54.249Z,102795.48
2018-12-27T02:19:23.539Z,102786.25
2018-12-27T02:21:52.792Z,102791.01
2018-12-27T02:24:22.136Z,102786.64
2018-12-27T02:26:51.450Z,102773.86
2018-12-27T02:29:20.738Z,102778.24
2018-12-27T02:31:50.034Z,102772.50
2018-12-27T02:34:19.337Z,102765.94
2018-12-27T02:36:48.642Z,102769.77
2018-12-27T02:39:17.965Z,102767.91
2018-12-27T02:41:47.243Z,102763.97
2018-12-27T02:44:16.494Z,102763.92
2018-12-27T02:46:45.743Z,102760.00
2018-12-27T02:49:15.062Z,102754.31
2018-12-27T02:51:44.302Z,102756.44
2018-12-27T02:54:13.655Z,102758.67
2018-12-27T02:56:42.908Z,102756.98
2018-12-27T02:59:14.272Z,102761.25
2018-12-27T03:01:43.615Z,102765.89
2018-12-27T03:04:12.847Z,102753.97
2018-12-27T03:06:42.210Z,102752.86
2018-12-27T03:09:11.507Z,102754.83
2018-12-27T03:11:40.763Z,102747.71
2018-12-27T03:14:10.041Z,102754.70
2018-12-27T03:16:39.426Z,102746.77
2018-12-27T03:19:08.695Z,102749.34
2018-12-27T03:21:37.934Z,102743.00
2018-12-27T03:24:07.331Z,102744.56
2018-12-27T03:26:36.697Z,102739.17
2018-12-27T03:29:06.034Z,102747.72
2018-12-27T03:31:35.429Z,102737.55
2018-12-27T03:34:04.727Z,102736.13
2018-12-27T03:36:34.023Z,102736.91
2018-12-27T03:39:04.772Z,102744.66
2018-12-27T03:41:34.055Z,102751.99
2018-12-27T03:44:03.387Z,102746.69
2018-12-27T03:46:32.651Z,102752.68
2018-12-27T03:49:01.985Z,102749.61
2018-12-27T03:51:31.232Z,102750.87
2018-12-27T03:54:00.547Z,102750.92
2018-12-27T03:56:29.853Z,102745.73
2018-12-27T03:58:59.297Z,102747.14
2018-12-27T04:01:28.560Z,102744.52
2018-12-27T04:04:01.629Z,102740.42
2018-12-27T04:06:27.259Z,102738.63
2018-12-27T04:08:56.521Z,102732.58
2018-12-27T04:11:25.869Z,102735.67
2018-12-27T04:13:55.161Z,102724.41
2018-12-27T04:16:24.409Z,102721.10
2018-12-27T04:18:53.653Z,102725.36
2018-12-27T04:21:22.953Z,102723.22
2018-12-27T04:23:52.213Z,102719.78
2018-12-27T04:26:21.515Z,102721.59
2018-12-27T04:28:50.760Z,102719.05
2018-12-27T04:31:20.027Z,102716.98
2018-12-27T04:33:49.369Z,102708.31
2018-12-27T04:36:18.693Z,102706.25
2018-12-27T04:38:47.970Z,102706.30
2018-12-27T04:41:17.295Z,102702.44
2018-12-27T04:43:46.547Z,102701.63
2018-12-27T04:46:15.966Z,102691.56
2018-12-27T04:48:45.179Z,102696.44
2018-12-27T04:51:14.437Z,102701.69
2018-12-27T04:53:43.677Z,102697.80
2018-12-27T04:56:12.962Z,102696.99
2018-12-27T04:58:42.204Z,102702.34
2018-12-27T05:01:11.436Z,102695.45
2018-12-27T05:03:40.679Z,102699.34
2018-12-27T05:06:09.937Z,102698.13
2018-12-27T05:08:39.192Z,102698.56
2018-12-27T05:11:08.431Z,102693.81
2018-12-27T05:13:37.670Z,102688.20
2018-12-27T05:16:06.966Z,102686.06
2018-12-27T05:18:36.241Z,102684.32
2018-12-27T05:21:05.505Z,102688.74
2018-12-27T05:23:34.787Z,102690.16
2018-12-27T05:26:04.087Z,102688.99
2018-12-27T05:28:33.345Z,102685.94
2018-12-27T05:31:02.621Z,102683.76
2018-12-27T05:33:31.865Z,102680.69
2018-12-27T05:36:01.141Z,102688.52
2018-12-27T05:38:30.489Z,102680.35
2018-12-27T05:40:59.752Z,102691.37
2018-12-27T05:43:28.993Z,102691.33
2018-12-27T05:45:58.269Z,102690.89
2018-12-27T05:48:27.525Z,102691.88
2018-12-27T05:50:56.899Z,102691.97
2018-12-27T05:53:26.284Z,102688.17
2018-12-27T05:55:55.583Z,102691.63
2018-12-27T05:58:24.845Z,102690.70
2018-12-27T06:00:54.196Z,102688.08
2018-12-27T06:03:23.507Z,102685.85
2018-12-27T06:05:52.747Z,102681.57
2018-12-27T06:08:22.011Z,102691.97
2018-12-27T06:10:51.253Z,102696.62
2018-12-27T06:13:20.506Z,102687.80
2018-12-27T06:15:49.769Z,102689.92
2018-12-27T06:18:19.065Z,102690.26
2018-12-27T06:20:48.317Z,102698.70
2018-12-27T06:23:17.587Z,102694.34
2018-12-27T06:25:46.863Z,102684.14
2018-12-27T06:28:16.122Z,102691.14
2018-12-27T06:30:45.385Z,102692.83
2018-12-27T06:33:14.685Z,102687.53
2018-12-27T06:35:43.956Z,102690.15
2018-12-27T06:38:13.198Z,102696.31
2018-12-27T06:40:42.473Z,102696.36
2018-12-27T06:43:11.724Z,102706.42
2018-12-27T06:45:40.974Z,102706.42
2018-12-27T06:48:10.244Z,102702.59
2018-12-27T06:50:39.601Z,102703.80
2018-12-27T06:53:08.888Z,102702.88
2018-12-27T06:55:38.194Z,102712.44
2018-12-27T06:58:07.456Z,102704.13
2018-12-27T07:00:36.795Z,102712.86
2018-12-27T07:03:06.135Z,102712.81
2018-12-27T07:05:35.393Z,102710.67
2018-12-27T07:08:04.638Z,102710.20
2018-12-27T07:10:33.883Z,102716.79
2018-12-27T07:13:03.148Z,102717.73
2018-12-27T07:15:32.388Z,102717.45
2018-12-27T07:18:01.653Z,102716.58
2018-12-27T07:20:31.661Z,102723.19
2018-12-27T07:23:00.914Z,102724.54
2018-12-27T07:25:30.170Z,102717.54
2018-12-27T07:27:59.424Z,102720.12
2018-12-27T07:30:28.689Z,102725.84
2018-12-27T07:32:57.928Z,102723.67
2018-12-27T07:35:27.176Z,102726.34
2018-12-27T07:37:56.441Z,102729.84
2018-12-27T07:40:25.675Z,102728.63
2018-12-27T07:42:55.026Z,102725.13
2018-12-27T07:45:24.281Z,102719.45
2018-12-27T07:47:53.546Z,102722.08
2018-12-27T07:50:22.874Z,102722.89
2018-12-27T07:52:52.128Z,102725.63
2018-12-27T07:55:21.430Z,102728.23
2018-12-27T07:57:50.662Z,102725.61
2018-12-27T08:00:19.945Z,102716.00
2018-12-27T08:02:49.206Z,102723.88
2018-12-27T08:05:18.461Z,102718.67
2018-12-27T08:07:47.747Z,102724.75
2018-12-27T08:10:17.127Z,102719.11
2018-12-27T08:12:46.425Z,102722.61
2018-12-27T08:15:15.736Z,102714.73
2018-12-27T08:17:45.030Z,102714.73
2018-12-27T08:20:14.259Z,102716.53
2018-12-27T08:22:43.575Z,102711.00
2018-12-27T08:25:12.936Z,102707.56
2018-12-27T08:27:42.230Z,102709.48
2018-12-27T08:30:11.529Z,102704.25
2018-12-27T08:32:40.842Z,102699.00
2018-12-27T08:35:11.662Z,102694.67
2018-12-27T08:37:39.393Z,102696.91
2018-12-27T08:40:08.755Z,102696.17
2018-12-27T08:42:38.008Z,102701.11
2018-12-27T08:45:07.310Z,102699.01
2018-12-27T08:47:36.650Z,102691.66
2018-12-27T08:50:06.663Z,102696.07
2018-12-27T08:52:35.917Z,102698.34
2018-12-27T08:55:05.605Z,102705.11
2018-12-27T08:57:34.867Z,102707.34
2018-12-27T09:00:04.617Z,102705.59
2018-12-27T09:02:33.877Z,102703.88
2018-12-27T09:05:03.137Z,102710.01
2018-12-27T09:07:32.443Z,102699.47
2018-12-27T09:10:01.684Z,102697.68
2018-12-27T09:12:30.973Z,102698.23
2018-12-27T09:15:00.295Z,102694.30
2018-12-27T09:17:29.577Z,102689.91
2018-12-27T09:19:58.833Z,102688.67
2018-12-27T09:22:28.112Z,102691.74
2018-12-27T09:24:57.420Z,102686.61
2018-12-27T09:27:26.677Z,102691.20
2018-12-27T09:29:55.963Z,102683.17
2018-12-27T09:32:25.222Z,102681.45
2018-12-27T09:34:54.472Z,102687.69
2018-12-27T09:37:23.713Z,102693.39
2018-12-27T09:39:52.961Z,102690.83
2018-12-27T09:42:22.225Z,102695.24
2018-12-27T09:44:51.511Z,102698.34
2018-12-27T09:47:20.777Z,102695.78
2018-12-27T09:49:50.099Z,102691.03
2018-12-27T09:52:19.495Z,102686.69
2018-12-27T09:54:48.793Z,102681.39
2018-12-27T09:57:18.245Z,102695.14
2018-12-27T09:59:47.593Z,102690.34
2018-12-27T10:02:16.925Z,102683.40
2018-12-27T10:04:46.187Z,102684.34
2018-12-27T10:07:15.450Z,102678.14
2018-12-27T10:09:44.714Z,102659.08
2018-12-27T10:12:13.975Z,102655.59
2018-12-27T10:14:43.234Z,102663.52
2018-12-27T10:17:12.522Z,102662.28
2018-12-27T10:19:41.764Z,102655.19
2018-12-27T10:22:11.043Z,102649.83
2018-12-27T10:24:40.278Z,102653.28
2018-12-27T10:27:09.593Z,102663.23
2018-12-27T10:29:38.887Z,102658.07
2018-12-27T10:32:08.128Z,102659.94
2018-12-27T10:34:37.370Z,102655.98
2018-12-27T10:37:06.696Z,102645.13
2018-12-27T10:39:35.973Z,102649.44
2018-12-27T10:42:05.254Z,102647.25
2018-12-27T10:44:34.495Z,102650.23
2018-12-27T10:47:03.780Z,102651.14
2018-12-27T10:49:33.109Z,102646.31
2018-12-27T10:52:02.372Z,102648.56
2018-12-27T10:54:31.630Z,102639.84
2018-12-27T10:57:00.910Z,102626.28
2018-12-27T10:59:30.166Z,102625.08
2018-12-27T11:01:59.528Z,102623.79
2018-12-27T11:04:28.789Z,102619.03
2018-12-27T11:06:58.043Z,102619.55
2018-12-27T11:09:27.399Z,102617.38
2018-12-27T11:11:56.670Z,102616.48
2018-12-27T11:14:25.986Z,102612.92
2018-12-27T11:16:55.219Z,102603.72
2018-12-27T11:19:24.548Z,102609.44
2018-12-27T11:21:53.823Z,102604.09
2018-12-27T11:24:23.156Z,102596.75
2018-12-27T11:26:52.425Z,102581.86
2018-12-27T11:29:21.723Z,102582.72
2018-12-27T11:31:51.012Z,102575.80
2018-12-27T11:34:20.336Z,102575.80
2018-12-27T11:36:49.629Z,102578.05
2018-12-27T11:39:18.932Z,102577.67
2018-12-27T11:41:48.196Z,102570.23
2018-12-27T11:44:17.546Z,102567.60
2018-12-27T11:46:46.773Z,102580.28
2018-12-27T11:49:16.048Z,102565.80
2018-12-27T11:51:45.328Z,102560.91
2018-12-27T11:54:14.578Z,102555.18
2018-12-27T11:56:43.837Z,102557.42
2018-12-27T11:59:13.147Z,102556.52
2018-12-27T12:01:42.427Z,102555.20
2018-12-27T12:04:11.712Z,102553.89
2018-12-27T12:06:40.981Z,102560.53
2018-12-27T12:09:10.227Z,102555.77
2018-12-27T12:11:39.539Z,102564.59
2018-12-27T12:14:09.056Z,102565.08
2018-12-27T12:16:38.361Z,102572.56
2018-12-27T12:19:07.611Z,102572.13
2018-12-27T12:21:36.901Z,102573.41
2018-12-27T12:24:06.142Z,102579.51
2018-12-27T12:26:35.464Z,102572.46
2018-12-27T12:29:04.822Z,102568.91
2018-12-27T12:31:34.071Z,102572.39
2018-12-27T12:34:03.362Z,102571.55
2018-12-27T12:36:32.627Z,102568.45
2018-12-27T12:39:01.961Z,102570.25
2018-12-27T12:41:31.235Z,102571.22
2018-12-27T12:44:00.552Z,102565.96
2018-12-27T12:46:29.826Z,102578.27
2018-12-27T12:48:59.070Z,102567.28
2018-12-27T12:51:28.332Z,102569.97
2018-12-27T12:53:57.660Z,102573.88
2018-12-27T12:56:26.932Z,102572.98
2018-12-27T12:58:56.194Z,102590.95
2018-12-27T13:01:25.574Z,102582.61
2018-12-27T13:03:54.842Z,102589.17
2018-12-27T13:06:24.114Z,102592.69
2018-12-27T13:08:53.442Z,102597.47
2018-12-27T13:11:22.782Z,102593.06
2018-12-27T13:13:52.150Z,102599.65
2018-12-27T13:16:21.414Z,102598.73
2018-12-27T13:18:50.672Z,102593.84
2018-12-27T13:21:19.951Z,102597.34
2018-12-27T13:23:49.208Z,102598.64
2018-12-27T13:26:18.443Z,102594.58
2018-12-27T13:28:47.786Z,102598.12
2018-12-27T13:31:17.222Z,102589.77
2018-12-27T13:33:46.502Z,102592.79
2018-12-27T13:36:15.760Z,102591.95
2018-12-27T13:38:45.073Z,102589.31
2018-12-27T13:41:14.382Z,102593.25
2018-12-27T13:43:43.726Z,102589.23
2018-12-27T13:46:12.977Z,102589.66
2018-12-27T13:48:42.364Z,102591.45
2018-12-27T13:51:11.660Z,102587.89
2018-12-27T13:53:40.987Z,102587.88
2018-12-27T13:56:10.302Z,102583.94
2018-12-27T13:58:39.669Z,102592.30
2018-12-27T14:01:08.986Z,102591.38
2018-12-27T14:03:38.270Z,102586.09
2018-12-27T14:06:07.612Z,102590.44
2018-12-27T14:08:36.874Z,102592.59
2018-12-27T14:11:06.194Z,102579.81
2018-12-27T14:13:35.490Z,102591.28
2018-12-27T14:16:04.762Z,102579.84
2018-12-27T14:18:39.630Z,102584.69
2018-12-27T14:21:08.902Z,102592.06
2018-12-27T14:23:38.200Z,102597.28
2018-12-27T14:26:07.478Z,102585.86
2018-12-27T14:28:36.849Z,102587.56
2018-12-27T14:31:06.136Z,102589.80
2018-12-27T14:33:35.447Z,102581.41
2018-12-27T14:36:04.672Z,102581.38
2018-12-27T14:38:34.019Z,102584.47
2018-12-27T14:41:03.342Z,102581.81
2018-12-27T14:43:32.586Z,102584.88
2018-12-27T14:46:01.860Z,102582.67
2018-12-27T14:48:31.124Z,102587.05
2018-12-27T14:51:00.420Z,102584.38
2018-12-27T14:53:29.706Z,102583.50
2018-12-27T14:55:58.996Z,102580.87
2018-12-27T14:58:28.288Z,102583.06
2018-12-27T15:00:57.547Z,102580.42
2018-12-27T15:03:26.848Z,102569.91
2018-12-27T15:05:56.119Z,102574.75
2018-12-27T15:08:25.436Z,102576.92
2018-12-27T15:10:54.680Z,102570.35
2018-12-27T15:13:24.050Z,102573.83
2018-12-27T15:15:53.392Z,102577.72
2018-12-27T15:18:22.658Z,102575.06
2018-12-27T15:20:51.953Z,102564.60
2018-12-27T15:23:21.257Z,102575.97
2018-12-27T15:25:50.523Z,102569.80
2018-12-27T15:28:19.857Z,102580.30
2018-12-27T15:30:49.123Z,102579.06
2018-12-27T15:33:18.378Z,102575.89
2018-12-27T15:35:47.728Z,102576.79
2018-12-27T15:38:17.152Z,102571.94
2018-12-27T15:40:46.472Z,102573.31
2018-12-27T15:43:15.710Z,102567.51
2018-12-27T15:45:45.088Z,102577.62
2018-12-27T15:48:14.448Z,102577.17
2018-12-27T15:50:43.778Z,102571.89
2018-12-27T15:53:13.156Z,102567.12
2018-12-27T15:55:42.440Z,102571.48
2018-12-27T15:58:11.690Z,102573.20
2018-12-27T16:00:40.938Z,102575.37
2018-12-27T16:03:10.204Z,102573.62
2018-12-27T16:05:39.497Z,102574.03
2018-12-27T16:08:08.850Z,102574.03
2018-12-27T16:10:38.139Z,102574.00
2018-12-27T16:13:07.364Z,102572.24
2018-12-27T16:15:36.603Z,102564.38
2018-12-27T16:18:05.857Z,102566.98
2018-12-27T16:20:35.176Z,102565.78
2018-12-27T16:23:04.482Z,102562.31
2018-12-27T16:25:33.758Z,102567.48
2018-12-27T16:28:03.079Z,102562.67
2018-12-27T16:30:32.364Z,102559.55
2018-12-27T16:33:01.681Z,102560.53
2018-12-27T16:35:31.150Z,102558.72
2018-12-27T16:38:00.465Z,102562.69
2018-12-27T16:40:29.794Z,102560.47
2018-12-27T16:42:59.070Z,102560.89
2018-12-27T16:45:28.359Z,102562.67
2018-12-27T16:47:58.297Z,102563.92
2018-12-27T16:50:27.574Z,102566.52
2018-12-27T16:52:56.885Z,102567.34
2018-12-27T16:55:26.203Z,102569.59
2018-12-27T16:57:55.478Z,102564.27
2018-12-27T17:00:23.916Z,102570.00
2018-12-27T17:02:53.258Z,102562.94
2018-12-27T17:05:22.517Z,102568.22
2018-12-27T17:07:51.863Z,102566.88
2018-12-27T17:10:21.131Z,102554.14
2018-12-27T17:12:50.400Z,102560.69
2018-12-27T17:15:19.655Z,102565.06
2018-12-27T17:17:48.926Z,102552.34
2018-12-27T17:20:18.179Z,102561.09
2018-12-27T17:22:47.498Z,102556.68
2018-12-27T17:25:16.751Z,102559.31
2018-12-27T17:27:46.043Z,102549.64
2018-12-27T17:30:15.350Z,102555.75
2018-12-27T17:32:44.687Z,102546.48
2018-12-27T17:35:13.996Z,102546.93
2018-12-27T17:37:43.273Z,102551.27
2018-12-27T17:40:12.521Z,102547.34
2018-12-27T17:42:41.814Z,102543.83
2018-12-27T17:45:11.100Z,102549.93
2018-12-27T17:47:40.367Z,102535.02
2018-12-27T17:50:09.647Z,102534.55
2018-12-27T17:52:39.085Z,102534.95
2018-12-27T17:55:08.486Z,102535.39
2018-12-27T17:57:37.973Z,102538.02
2018-12-27T18:00:07.746Z,102534.11
2018-12-27T18:02:37.027Z,102537.20
2018-12-27T18:05:06.307Z,102537.64
2018-12-27T18:07:35.589Z,102539.33
2018-12-27T18:10:05.422Z,102534.52
2018-12-27T18:12:34.935Z,102532.77
2018-12-27T18:15:04.617Z,102539.30
2018-12-27T18:17:33.831Z,102538.86
2018-12-27T18:20:03.093Z,102547.20
2018-12-27T18:22:32.325Z,102536.33
2018-12-27T18:25:01.646Z,102541.11
2018-12-27T18:27:30.914Z,102539.80
2018-12-27T18:30:00.211Z,102539.77
2018-12-27T18:32:29.457Z,102538.02
2018-12-27T18:34:58.769Z,102540.17
2018-12-27T18:37:28.137Z,102541.92
2018-12-27T18:39:57.437Z,102541.48
2018-12-27T18:42:26.689Z,102538.45
2018-12-27T18:44:56.045Z,102531.89
2018-12-27T18:47:25.350Z,102532.30
2018-12-27T18:49:54.616Z,102527.95
2018-12-27T18:52:23.937Z,102531.89
2018-12-27T18:54:53.191Z,102527.08
2018-12-27T18:57:22.505Z,102531.45
2018-12-27T18:59:51.870Z,102531.48
2018-12-27T19:02:21.139Z,102530.27
2018-12-27T19:04:50.368Z,102535.92
2018-12-27T19:07:19.658Z,102528.89
2018-12-27T19:09:48.911Z,102524.95
2018-12-27T19:12:55.140Z,102527.17
2018-12-27T19:15:26.664Z,102525.83
2018-12-27T19:18:02.742Z,102530.64
2018-12-27T19:20:32.002Z,102531.17
2018-12-27T19:23:14.670Z,102537.77
2018-12-27T19:25:43.960Z,102531.67
2018-12-27T19:28:13.295Z,102528.60
2018-12-27T19:30:42.726Z,102535.23
2018-12-27T19:33:11.990Z,102532.20
2018-12-27T19:35:41.265Z,102533.53
2018-12-27T19:38:10.548Z,102527.05
2018-12-27T19:40:39.885Z,102530.56
2018-12-27T19:43:09.147Z,102532.36
2018-12-27T19:45:38.637Z,102531.98
2018-12-27T19:48:07.899Z,102532.41
2018-12-27T19:50:37.267Z,102530.25
2018-12-27T19:53:06.528Z,102528.53
2018-12-27T19:55:35.893Z,102522.78
2018-12-27T19:58:05.165Z,102529.38
2018-12-27T20:00:34.483Z,102529.40
2018-12-27T20:03:03.730Z,102528.09
2018-12-27T20:05:33.017Z,102529.84
2018-12-27T20:08:02.297Z,102534.71
2018-12-27T20:10:31.670Z,102529.50
2018-12-27T20:13:01.102Z,102530.44
2018-12-27T20:15:33.799Z,102533.94
2018-12-27T20:18:06.660Z,102526.98
2018-12-27T20:20:36.061Z,102535.72
2018-12-27T20:23:05.715Z,102538.36
2018-12-27T20:25:34.579Z,102536.22
2018-12-27T20:28:03.878Z,102541.94
2018-12-27T20:30:35.401Z,102532.71
2018-12-27T20:33:05.043Z,102534.91
2018-12-27T20:35:34.409Z,102539.27
2018-12-27T20:38:06.866Z,102539.73
2018-12-27T20:40:33.109Z,102549.85
2018-12-27T20:43:02.405Z,102544.22
2018-12-27T20:45:32.016Z,102546.83
2018-12-27T20:48:01.332Z,102544.33
2018-12-27T20:50:30.752Z,102539.92
2018-12-27T20:53:00.075Z,102544.33
2018-12-27T20:55:29.456Z,102546.55
2018-12-27T20:57:58.721Z,102546.94
2018-12-27T21:00:28.767Z,102542.53
2018-12-27T21:03:04.196Z,102541.67
2018-12-27T21:05:31.353Z,102541.20
2018-12-27T21:08:00.651Z,102545.55
2018-12-27T21:10:29.958Z,102543.36
2018-12-27T21:12:59.306Z,102545.59
2018-12-27T21:15:28.675Z,102546.89
2018-12-27T21:17:58.033Z,102539.91
2018-12-27T21:20:27.342Z,102550.39
2018-12-27T21:22:56.693Z,102540.30
2018-12-27T21:25:26.055Z,102545.58
2018-12-27T21:27:55.321Z,102546.94
2018-12-27T21:30:24.616Z,102546.95
2018-12-27T21:32:53.892Z,102547.84
2018-12-27T21:35:23.180Z,102545.14
2018-12-27T21:37:52.518Z,102543.80
2018-12-27T21:40:21.855Z,102547.80
2018-12-27T21:42:51.164Z,102542.92
2018-12-27T21:45:20.467Z,102545.09
2018-12-27T21:47:49.722Z,102548.61
2018-12-27T21:50:19.031Z,102543.73
2018-12-27T21:52:48.389Z,102538.48
2018-12-27T21:55:17.705Z,102539.81
2018-12-27T21:57:47.008Z,102543.72
2018-12-27T22:00:16.337Z,102537.99
2018-12-27T22:02:45.631Z,102533.61
2018-12-27T22:05:14.901Z,102529.21
2018-12-27T22:07:44.181Z,102525.68
2018-12-27T22:10:13.450Z,102526.06
2018-12-27T22:12:42.725Z,102526.97
2018-12-27T22:15:11.980Z,102517.36
2018-12-27T22:17:41.310Z,102510.75
2018-12-27T22:20:10.690Z,102509.90
2018-12-27T22:22:39.997Z,102510.40
2018-12-27T22:25:09.291Z,102504.26
2018-12-27T22:27:38.786Z,102508.56
2018-12-27T22:30:08.401Z,102507.25
2018-12-27T22:32:37.699Z,102508.63
2018-12-27T22:35:07.036Z,102506.48
2018-12-27T22:37:36.115Z,102491.99
2018-12-27T22:40:05.704Z,102488.10
2018-12-27T22:42:34.974Z,102497.27
2018-12-27T22:45:04.435Z,102495.92
2018-12-27T22:47:33.703Z,102488.91
2018-12-27T22:50:03.027Z,102488.10
2018-12-27T22:52:32.305Z,102494.23
2018-12-27T22:55:04.455Z,102492.42
2018-12-27T22:57:34.024Z,102482.79
2018-12-27T23:00:03.337Z,102477.12
2018-12-27T23:02:32.689Z,102483.66
2018-12-27T23:05:02.028Z,102494.59
2018-12-27T23:07:31.291Z,102490.67
2018-12-27T23:10:00.599Z,102492.86
2018-12-27T23:12:29.939Z,102499.47
2018-12-27T23:14:59.215Z,102499.41
2018-12-27T23:17:28.485Z,102495.45
2018-12-27T23:19:57.803Z,102502.45
2018-12-27T23:22:27.138Z,102493.28
2018-12-27T23:24:56.378Z,102502.88
2018-12-27T23:27:25.685Z,102500.70
2018-12-27T23:29:55.013Z,102498.16
2018-12-27T23:32:24.362Z,102507.77
2018-12-27T23:34:53.706Z,102507.77
2018-12-27T23:37:23.001Z,102497.24
2018-12-27T23:39:52.261Z,102505.13
2018-12-27T23:42:21.532Z,102506.88
2018-12-27T23:44:50.801Z,102509.50
2018-12-27T23:47:20.106Z,102501.59
2018-12-27T23:49:49.389Z,102499.41
2018-12-27T23:52:18.709Z,102502.08
2018-12-27T23:54:47.972Z,102503.88
2018-12-27T23:57:17.316Z,102501.73
2018-12-27T23:59:46.601Z,102495.61
